Corbin-London Airport

About

Name: Corbin-London Airport
Identifier:  LOZ/KLOZ
Serves:  London, Kentucky
Owner:  Cities of London & Corbin
Public/Private:  Public
Local Time:  26. Jan 22:56 EST
Description: London-Corbin Airport is in Laurel County, Kentucky, three miles south of London and about 12 miles north of Corbin. The airport is operated by both cities.
Source: Wikipedia

Location

Corbin-London Airport

Runways
Identifier Length (m/ft) Surface
6/24 1,753/5,750 Asphalt

Statistics

Flights Per Day:
0 Flights
Distance: 226km (140mi)
Flights Delayed:
0% (0 Flights/Day Delayed)
Average Delay: 42 minutes

Current Weather

 4 C (Humidity: 80%)
  4kt (7km/h / 4mph) from 190°
  Overcast at 1,900 feet (579 meter)
  16km (10 mi.)
 METAR KLOZ 270253Z AUTO 19004KT 10SM OVC019 04/01 A2995 RMK AO2 SLP148 T00440006 56006 $

Claim Compensation

Claim compensation for your flight delay or cancellation
Flight delays happen, but that doesn’t mean you have to accept them. You may be entitled to as much as €600/$700 in compensation if your flight has been delayed, canceled or overbooked within the last three years.

Current Delays

Departures

N/A

Arrivals

N/A

Destinations

Map

Top Destinations

Airport Flights
per week
Seats
per week
  Cincinnati (LUK) 0 - 0 0

Airlines & Planes

Top Airlines

Airline Flights
per day
Seats
per day
EagleMed 0 -

Top Models

model Flights seats
Beech E90 King Air 0.0/day - 0